createdAt,value
2023-05-13T00:00:18.040Z,3.00
2023-05-13T00:02:44.934Z,2.92
2023-05-13T00:05:11.943Z,3.08
2023-05-13T00:07:38.859Z,2.90
2023-05-13T00:10:05.883Z,2.90
2023-05-13T00:12:32.658Z,3.03
2023-05-13T00:14:59.446Z,3.30
2023-05-13T00:17:26.330Z,3.40
2023-05-13T00:19:53.203Z,3.70
2023-05-13T00:22:19.990Z,3.55
2023-05-13T00:24:46.704Z,3.20
2023-05-13T00:29:40.146Z,3.28
2023-05-13T00:32:07.115Z,3.25
2023-05-13T00:34:33.924Z,3.00
2023-05-13T00:37:01.052Z,3.10
2023-05-13T00:39:28.846Z,3.67
2023-05-13T00:41:56.011Z,3.47
2023-05-13T00:44:22.764Z,3.38
2023-05-13T00:49:16.597Z,3.05
2023-05-13T00:51:43.759Z,4.00
2023-05-13T00:54:10.577Z,3.45
2023-05-13T00:56:39.173Z,4.78
2023-05-13T00:59:05.911Z,4.60
2023-05-13T01:04:12.497Z,4.05
2023-05-13T01:07:13.082Z,3.90
2023-05-13T01:09:49.463Z,4.55
2023-05-13T01:12:30.999Z,3.80
2023-05-13T01:15:22.044Z,3.95
2023-05-13T01:18:05.101Z,4.40
2023-05-13T01:20:33.466Z,4.10
2023-05-13T01:23:00.396Z,3.70
2023-05-13T01:25:27.269Z,2.92
2023-05-13T01:27:54.515Z,2.70
2023-05-13T01:30:22.175Z,2.50
2023-05-13T01:32:50.781Z,2.15
2023-05-13T01:35:18.166Z,2.40
2023-05-13T01:37:45.193Z,2.60
2023-05-13T01:40:28.220Z,2.40
2023-05-13T01:42:59.011Z,2.50
2023-05-13T01:45:29.166Z,3.00
2023-05-13T01:47:56.004Z,2.58
2023-05-13T01:50:22.943Z,2.85
2023-05-13T01:52:49.957Z,2.42
2023-05-13T01:55:16.744Z,1.90
2023-05-13T01:57:43.448Z,2.10
2023-05-13T02:02:37.530Z,2.50
2023-05-13T02:05:05.359Z,2.55
2023-05-13T02:07:32.101Z,2.00
2023-05-13T02:09:59.978Z,2.50
2023-05-13T02:12:27.210Z,2.28
2023-05-13T02:14:54.927Z,2.30
2023-05-13T02:17:22.614Z,2.67
2023-05-13T02:19:49.555Z,2.13
2023-05-13T02:22:16.603Z,1.92
2023-05-13T02:24:43.486Z,1.92
2023-05-13T02:27:12.674Z,2.10
2023-05-13T02:29:39.385Z,1.63
2023-05-13T02:34:33.388Z,1.13
2023-05-13T02:37:00.143Z,1.33
2023-05-13T02:41:53.770Z,1.40
2023-05-13T02:46:48.440Z,1.50
2023-05-13T02:51:41.781Z,1.52
2023-05-13T02:56:35.265Z,1.40
2023-05-13T02:59:02.028Z,1.33
2023-05-13T03:03:55.554Z,1.33
2023-05-13T03:06:22.418Z,1.50
2023-05-13T03:08:49.116Z,1.25
2023-05-13T03:13:42.599Z,1.20
2023-05-13T03:16:09.784Z,1.15
2023-05-13T03:18:36.617Z,1.23
2023-05-13T03:21:03.381Z,1.20
2023-05-13T03:25:56.994Z,1.10
2023-05-13T03:30:51.104Z,1.00
2023-05-13T03:33:18.039Z,1.10
2023-05-13T03:35:45.672Z,1.10
2023-05-13T03:38:12.449Z,1.17
2023-05-13T03:40:39.257Z,0.90
2023-05-13T03:45:32.695Z,1.10
2023-05-13T03:50:26.411Z,0.90
2023-05-13T03:52:53.106Z,1.00
2023-05-13T03:57:48.609Z,0.70
2023-05-13T04:00:15.965Z,0.98
2023-05-13T04:02:43.044Z,0.80
2023-05-13T04:05:10.228Z,0.80
2023-05-13T04:07:37.033Z,0.90
2023-05-13T04:12:31.291Z,0.90
2023-05-13T04:15:01.056Z,1.08
2023-05-13T04:17:28.943Z,0.93
2023-05-13T04:19:55.992Z,1.02
2023-05-13T04:22:24.408Z,1.00
2023-05-13T04:24:56.172Z,1.10
2023-05-13T04:27:24.184Z,1.15
2023-05-13T04:29:51.048Z,1.20
2023-05-13T04:32:21.954Z,1.30
2023-05-13T04:34:49.510Z,0.90
2023-05-13T04:37:16.873Z,1.08
2023-05-13T04:39:46.207Z,0.90
2023-05-13T04:42:19.146Z,0.80
2023-05-13T04:44:46.032Z,0.93
2023-05-13T04:47:12.945Z,0.80
2023-05-13T04:49:39.758Z,0.90
2023-05-13T04:52:07.306Z,0.95
2023-05-13T04:54:35.937Z,1.25
2023-05-13T04:57:03.120Z,1.23
2023-05-13T04:59:29.888Z,1.20
2023-05-13T05:04:25.007Z,1.10
2023-05-13T05:06:51.804Z,1.25
2023-05-13T05:09:18.903Z,1.25
2023-05-13T05:11:45.805Z,1.17
2023-05-13T05:14:12.553Z,1.10
2023-05-13T05:19:06.109Z,1.10
2023-05-13T05:21:32.840Z,1.05
2023-05-13T05:24:01.824Z,0.90
2023-05-13T05:26:28.718Z,1.20
2023-05-13T05:28:55.509Z,1.40
2023-05-13T05:33:48.994Z,1.00
2023-05-13T05:36:15.812Z,1.20
2023-05-13T05:41:09.299Z,1.33
2023-05-13T05:46:02.803Z,1.50
2023-05-13T05:48:29.594Z,1.60
2023-05-13T05:53:23.644Z,1.40
2023-05-13T05:58:19.866Z,1.80
2023-05-13T06:03:13.651Z,1.83
2023-05-13T06:05:40.721Z,2.00
2023-05-13T06:08:07.602Z,1.70
2023-05-13T06:10:35.271Z,2.05
2023-05-13T06:13:02.393Z,2.13
2023-05-13T06:15:29.226Z,2.80
2023-05-13T06:17:56.925Z,2.38
2023-05-13T06:20:24.026Z,2.28
2023-05-13T06:22:50.939Z,2.97
2023-05-13T06:25:17.864Z,2.72
2023-05-13T06:27:44.609Z,3.22
2023-05-13T06:32:40.840Z,3.53
2023-05-13T06:35:09.769Z,2.90
2023-05-13T06:37:36.599Z,2.65
2023-05-13T06:40:04.227Z,2.63
2023-05-13T06:42:30.981Z,3.67
2023-05-13T06:44:57.728Z,3.00
2023-05-13T06:47:24.541Z,2.70
2023-05-13T06:49:51.319Z,2.83
2023-05-13T06:54:44.633Z,2.90
2023-05-13T06:57:12.251Z,2.70
2023-05-13T06:59:39.152Z,3.05
2023-05-13T07:02:09.647Z,3.22
2023-05-13T07:04:37.082Z,3.35
2023-05-13T07:07:03.998Z,3.60
2023-05-13T07:09:30.722Z,3.30
2023-05-13T07:14:26.075Z,3.58
2023-05-13T07:16:52.905Z,3.22
2023-05-13T07:19:19.835Z,3.10
2023-05-13T07:21:46.844Z,3.80
2023-05-13T07:24:14.627Z,3.03
2023-05-13T07:26:41.511Z,2.70
2023-05-13T07:29:08.384Z,2.75
2023-05-13T07:31:35.211Z,2.60
2023-05-13T07:34:02.007Z,2.50
2023-05-13T07:36:28.756Z,2.45
2023-05-13T07:41:22.403Z,2.72
2023-05-13T07:43:49.310Z,2.83
2023-05-13T07:46:15.994Z,3.35
2023-05-13T07:51:10.065Z,2.40
2023-05-13T07:53:36.980Z,2.90
2023-05-13T07:56:04.133Z,2.63
2023-05-13T07:58:30.931Z,2.85
2023-05-13T08:00:57.814Z,2.60
2023-05-13T08:03:24.677Z,2.50
2023-05-13T08:05:51.575Z,2.47
2023-05-13T08:08:18.331Z,2.65
2023-05-13T08:10:45.069Z,2.95
2023-05-13T08:13:12.039Z,2.47
2023-05-13T08:15:39.160Z,2.55
2023-05-13T08:18:06.196Z,3.03
2023-05-13T08:20:32.939Z,2.40
2023-05-13T08:25:27.908Z,3.08
2023-05-13T08:27:54.651Z,2.60
2023-05-13T08:30:21.758Z,2.67
2023-05-13T08:32:48.692Z,2.30
2023-05-13T08:35:15.759Z,2.88
2023-05-13T08:37:42.770Z,2.30
2023-05-13T08:40:13.662Z,2.90
2023-05-13T08:42:42.747Z,2.15
2023-05-13T08:45:11.699Z,1.60
2023-05-13T08:47:52.716Z,1.77
2023-05-13T08:50:20.781Z,1.50
2023-05-13T08:52:47.861Z,1.70
2023-05-13T08:55:15.620Z,1.55
2023-05-13T08:57:42.383Z,2.38
2023-05-13T09:02:36.133Z,1.40
2023-05-13T09:05:07.017Z,1.30
2023-05-13T09:07:37.962Z,1.40
2023-05-13T09:10:06.279Z,1.20
2023-05-13T09:12:46.389Z,1.90
2023-05-13T09:15:18.336Z,1.90
2023-05-13T09:17:52.672Z,2.00
2023-05-13T09:20:21.131Z,1.70
2023-05-13T09:22:53.398Z,1.73
2023-05-13T09:25:24.058Z,1.40
2023-05-13T09:27:54.226Z,2.03
2023-05-13T09:30:21.373Z,1.80
2023-05-13T09:33:04.985Z,1.90
2023-05-13T09:35:32.611Z,2.15
2023-05-13T09:37:59.470Z,1.40
2023-05-13T09:40:26.351Z,2.25
2023-05-13T09:42:59.080Z,1.30
2023-05-13T09:45:26.578Z,1.52
2023-05-13T09:47:56.006Z,1.35
2023-05-13T09:50:23.343Z,1.70
2023-05-13T09:52:50.979Z,1.95
2023-05-13T09:55:17.853Z,2.15
2023-05-13T09:57:46.111Z,1.30
2023-05-13T10:00:24.780Z,1.45
2023-05-13T10:02:59.037Z,2.72
2023-05-13T10:05:26.156Z,1.85
2023-05-13T10:07:53.346Z,1.30
2023-05-13T10:10:21.136Z,1.83
2023-05-13T10:12:50.408Z,1.52
2023-05-13T10:15:17.523Z,1.63
2023-05-13T10:17:44.928Z,1.90
2023-05-13T10:20:12.579Z,1.30
2023-05-13T10:22:40.581Z,1.40
2023-05-13T10:25:08.708Z,1.40
2023-05-13T10:27:35.492Z,1.55
2023-05-13T10:30:05.036Z,1.70
2023-05-13T10:32:31.975Z,1.70
2023-05-13T10:35:13.017Z,1.77
2023-05-13T10:37:58.596Z,2.00
2023-05-13T10:40:43.473Z,1.52
2023-05-13T10:43:22.102Z,1.92
2023-05-13T10:45:54.076Z,1.55
2023-05-13T10:48:21.210Z,1.50
2023-05-13T10:50:52.217Z,1.50
2023-05-13T10:53:28.656Z,1.60
2023-05-13T10:55:57.085Z,1.42
2023-05-13T10:58:34.723Z,1.30
2023-05-13T11:01:16.697Z,1.70
2023-05-13T11:03:55.781Z,1.63
2023-05-13T11:08:56.159Z,1.00
2023-05-13T11:11:23.136Z,1.08
2023-05-13T11:13:54.055Z,1.15
2023-05-13T11:16:22.091Z,1.30
2023-05-13T11:18:49.620Z,2.42
2023-05-13T11:21:16.551Z,1.48
2023-05-13T11:23:57.069Z,1.85
2023-05-13T11:26:24.100Z,1.30
2023-05-13T11:29:04.041Z,1.15
2023-05-13T11:32:04.436Z,1.45
2023-05-13T11:34:32.535Z,1.40
2023-05-13T11:37:05.310Z,1.38
2023-05-13T11:39:33.382Z,1.30
2023-05-13T11:42:03.908Z,1.20
2023-05-13T11:44:30.932Z,1.10
2023-05-13T11:47:02.683Z,1.45
2023-05-13T11:49:42.658Z,2.20
2023-05-13T11:52:18.084Z,1.15
2023-05-13T11:54:55.495Z,1.55
2023-05-13T11:57:26.926Z,1.20
2023-05-13T11:59:59.081Z,1.30
2023-05-13T12:02:30.667Z,1.58
2023-05-13T12:05:08.758Z,1.52
2023-05-13T12:07:37.536Z,1.50
2023-05-13T12:10:06.106Z,1.30
2023-05-13T12:12:41.117Z,1.55
2023-05-13T12:15:10.903Z,6.68
2023-05-13T12:17:38.050Z,1.70
2023-05-13T12:20:08.792Z,1.45
2023-05-13T12:22:36.382Z,1.38
2023-05-13T12:25:32.428Z,1.30
2023-05-13T12:28:00.115Z,1.17
2023-05-13T12:30:37.722Z,1.55
2023-05-13T12:33:05.343Z,1.20
2023-05-13T12:35:33.136Z,1.30
2023-05-13T12:38:04.583Z,1.05
2023-05-13T12:40:31.990Z,1.27
2023-05-13T12:43:03.145Z,1.10
2023-05-13T12:45:31.733Z,1.10
2023-05-13T12:47:59.912Z,0.90
2023-05-13T12:50:27.503Z,1.00
2023-05-13T12:52:54.699Z,1.10
2023-05-13T12:55:21.982Z,1.05
2023-05-13T12:58:04.857Z,1.20
2023-05-13T13:00:31.618Z,1.17
2023-05-13T13:02:58.505Z,1.00
2023-05-13T13:05:26.309Z,1.27
2023-05-13T13:07:53.052Z,1.50
2023-05-13T13:10:19.757Z,1.10
2023-05-13T13:12:46.621Z,1.13
2023-05-13T13:15:13.571Z,1.10
2023-05-13T13:17:40.424Z,1.20
2023-05-13T13:20:08.312Z,0.98
2023-05-13T13:22:38.929Z,0.80
2023-05-13T13:25:06.545Z,1.00
2023-05-13T13:27:34.708Z,0.70
2023-05-13T13:30:01.465Z,1.35
2023-05-13T13:32:28.282Z,0.85
2023-05-13T13:34:55.159Z,0.70
2023-05-13T13:37:21.898Z,0.75
2023-05-13T13:39:48.611Z,0.90
2023-05-13T13:42:15.310Z,0.77
2023-05-13T13:44:42.278Z,0.80
2023-05-13T13:47:09.706Z,1.30
2023-05-13T13:49:36.543Z,0.60
2023-05-13T13:52:03.454Z,0.70
2023-05-13T13:54:30.414Z,0.80
2023-05-13T13:56:57.244Z,0.80
2023-05-13T13:59:24.018Z,0.60
2023-05-13T14:01:51.213Z,0.70
2023-05-13T14:04:27.596Z,0.70
2023-05-13T14:06:57.647Z,0.63
2023-05-13T14:09:24.906Z,0.63
2023-05-13T14:11:51.892Z,0.60
2023-05-13T14:14:19.028Z,0.70
2023-05-13T14:16:45.984Z,0.70
2023-05-13T14:19:12.882Z,0.65
2023-05-13T14:21:39.776Z,0.52
2023-05-13T14:24:08.386Z,0.50
2023-05-13T14:26:35.324Z,0.68
2023-05-13T14:29:02.110Z,0.60
2023-05-13T14:31:28.945Z,1.05
2023-05-13T14:33:55.794Z,1.42
2023-05-13T14:36:22.966Z,1.08
2023-05-13T14:38:49.744Z,1.13
2023-05-13T14:41:19.878Z,1.30
2023-05-13T14:43:47.237Z,0.85
2023-05-13T14:46:14.340Z,0.80
2023-05-13T14:48:41.546Z,1.08
2023-05-13T14:51:08.358Z,1.20
2023-05-13T14:53:35.084Z,1.30
2023-05-13T14:56:01.924Z,1.17
2023-05-13T14:58:28.751Z,1.13
2023-05-13T15:00:56.063Z,1.20
2023-05-13T15:03:22.966Z,1.30
2023-05-13T15:05:50.263Z,1.30
2023-05-13T15:08:17.059Z,2.20
2023-05-13T15:10:44.259Z,1.40
2023-05-13T15:13:11.053Z,1.20
2023-05-13T15:15:38.072Z,1.38
2023-05-13T15:18:05.557Z,1.33
2023-05-13T15:20:32.376Z,1.38
2023-05-13T15:22:59.468Z,1.67
2023-05-13T15:25:26.365Z,1.70
2023-05-13T15:27:53.085Z,1.40
2023-05-13T15:30:20.052Z,1.75
2023-05-13T15:32:47.017Z,1.30
2023-05-13T15:35:16.511Z,1.60
2023-05-13T15:37:43.456Z,1.17
2023-05-13T15:40:10.775Z,1.00
2023-05-13T15:42:37.755Z,1.10
2023-05-13T15:45:05.024Z,1.20
2023-05-13T15:47:31.989Z,1.08
2023-05-13T15:49:59.053Z,1.33
2023-05-13T15:52:25.887Z,1.85
2023-05-13T15:54:52.585Z,1.77
2023-05-13T15:59:46.086Z,1.80
2023-05-13T16:02:12.904Z,1.77
2023-05-13T16:04:39.861Z,1.80
2023-05-13T16:07:11.058Z,1.75
2023-05-13T16:09:38.839Z,1.83
2023-05-13T16:12:06.120Z,3.30
2023-05-13T16:14:32.987Z,3.05
2023-05-13T16:17:00.712Z,2.15
2023-05-13T16:19:27.617Z,2.20
2023-05-13T16:21:54.443Z,1.85
2023-05-13T16:24:22.351Z,2.00
2023-05-13T16:26:49.312Z,1.95
2023-05-13T16:29:15.996Z,1.80
2023-05-13T16:34:09.515Z,2.00
2023-05-13T16:36:36.343Z,1.40
2023-05-13T16:39:04.127Z,1.70
2023-05-13T16:41:30.929Z,1.67
2023-05-13T16:43:57.661Z,1.60
2023-05-13T16:46:24.394Z,1.50
2023-05-13T16:48:51.173Z,1.45
2023-05-13T16:51:18.075Z,1.63
2023-05-13T16:53:44.831Z,1.30
2023-05-13T16:58:38.735Z,1.52
2023-05-13T17:01:05.988Z,1.80
2023-05-13T17:03:32.887Z,1.85
2023-05-13T17:05:59.657Z,1.50
2023-05-13T17:08:26.429Z,1.23
2023-05-13T17:10:53.173Z,1.80
2023-05-13T17:15:47.407Z,1.40
2023-05-13T17:18:14.225Z,1.33
2023-05-13T17:20:41.118Z,1.52
2023-05-13T17:23:07.841Z,1.60
2023-05-13T17:25:34.607Z,1.85
2023-05-13T17:28:01.317Z,2.35
2023-05-13T17:32:55.207Z,2.03
2023-05-13T17:35:22.034Z,1.63
2023-05-13T17:37:48.824Z,1.40
2023-05-13T17:40:15.638Z,1.70
2023-05-13T17:42:42.376Z,1.50
2023-05-13T17:45:09.631Z,1.60
2023-05-13T17:47:36.575Z,1.27
2023-05-13T17:50:04.295Z,1.30
2023-05-13T17:52:31.162Z,1.20
2023-05-13T17:54:57.885Z,1.63
2023-05-13T17:57:24.564Z,1.52
2023-05-13T18:02:19.211Z,1.00
2023-05-13T18:04:46.232Z,1.60
2023-05-13T18:07:12.934Z,1.33
2023-05-13T18:12:07.250Z,1.70
2023-05-13T18:14:34.042Z,2.10
2023-05-13T18:17:00.866Z,2.90
2023-05-13T18:19:27.700Z,1.90
2023-05-13T18:21:54.446Z,1.98
2023-05-13T18:24:21.311Z,1.60
2023-05-13T18:26:48.009Z,1.40
2023-05-13T18:31:41.644Z,1.25
2023-05-13T18:34:08.406Z,1.60
2023-05-13T18:36:35.158Z,1.30
2023-05-13T18:39:01.987Z,1.70
2023-05-13T18:41:28.765Z,1.50
2023-05-13T18:43:55.493Z,1.83
2023-05-13T18:46:22.725Z,1.50
2023-05-13T18:48:49.491Z,2.00
2023-05-13T18:51:16.566Z,1.50
2023-05-13T18:53:43.370Z,1.40
2023-05-13T18:56:10.235Z,2.95
2023-05-13T18:58:37.139Z,1.60
2023-05-13T19:01:04.106Z,1.88
2023-05-13T19:03:30.977Z,2.08
2023-05-13T19:05:57.781Z,2.65
2023-05-13T19:08:24.566Z,1.23
2023-05-13T19:10:51.361Z,1.13
2023-05-13T19:13:21.019Z,1.20
2023-05-13T19:15:48.280Z,1.17
2023-05-13T19:18:15.271Z,1.25
2023-05-13T19:20:43.524Z,1.23
2023-05-13T19:23:10.615Z,1.65
2023-05-13T19:25:42.086Z,1.73
2023-05-13T19:28:09.824Z,1.80
2023-05-13T19:30:37.145Z,2.15
2023-05-13T19:33:04.563Z,2.00
2023-05-13T19:35:35.858Z,1.92
2023-05-13T19:38:03.399Z,1.50
2023-05-13T19:40:30.184Z,1.52
2023-05-13T19:42:57.032Z,1.30
2023-05-13T19:45:24.143Z,1.02
2023-05-13T19:47:51.220Z,1.20
2023-05-13T19:50:18.200Z,2.20
2023-05-13T19:52:45.047Z,1.88
2023-05-13T19:55:12.508Z,1.83
2023-05-13T19:57:41.577Z,2.13
2023-05-13T20:00:12.175Z,1.60
2023-05-13T20:02:39.856Z,1.38
2023-05-13T20:05:08.378Z,2.40
2023-05-13T20:07:35.518Z,1.80
2023-05-13T20:10:02.634Z,1.70
2023-05-13T20:12:30.065Z,1.23
2023-05-13T20:14:58.255Z,1.33
2023-05-13T20:17:25.575Z,1.30
2023-05-13T20:19:54.569Z,1.13
2023-05-13T20:22:22.143Z,2.28
2023-05-13T20:24:51.220Z,1.98
2023-05-13T20:27:18.679Z,2.40
2023-05-13T20:29:47.488Z,2.28
2023-05-13T20:32:24.547Z,1.88
2023-05-13T20:34:54.898Z,1.85
2023-05-13T20:37:24.036Z,3.70
2023-05-13T20:39:51.359Z,1.63
2023-05-13T20:42:18.137Z,1.65
2023-05-13T20:44:46.500Z,1.35
2023-05-13T20:47:14.040Z,1.50
2023-05-13T20:49:43.960Z,1.48
2023-05-13T20:52:11.515Z,1.38
2023-05-13T20:54:38.616Z,1.50
2023-05-13T20:57:05.728Z,1.48
2023-05-13T20:59:32.647Z,1.73
2023-05-13T21:01:59.564Z,1.50
2023-05-13T21:04:26.697Z,1.58
2023-05-13T21:06:53.621Z,1.75
2023-05-13T21:09:20.406Z,1.20
2023-05-13T21:11:47.219Z,1.10
2023-05-13T21:14:14.013Z,1.10
2023-05-13T21:16:40.817Z,1.10
2023-05-13T21:19:08.257Z,1.00
2023-05-13T21:21:35.132Z,1.20
2023-05-13T21:24:01.836Z,1.23
2023-05-13T21:28:55.415Z,1.30
2023-05-13T21:31:22.341Z,1.95
2023-05-13T21:33:49.154Z,1.90
2023-05-13T21:36:16.140Z,1.70
2023-05-13T21:38:43.006Z,1.88
2023-05-13T21:41:09.905Z,1.20
2023-05-13T21:43:36.654Z,2.10
2023-05-13T21:46:03.497Z,1.58
2023-05-13T21:48:30.372Z,1.88
2023-05-13T21:50:57.872Z,1.90
2023-05-13T21:53:24.663Z,5.10
2023-05-13T21:55:51.931Z,1.98
2023-05-13T21:58:20.611Z,1.60
2023-05-13T22:00:48.721Z,1.50
2023-05-13T22:03:15.601Z,1.40
2023-05-13T22:05:44.275Z,1.65
2023-05-13T22:08:11.457Z,1.90
2023-05-13T22:10:38.705Z,1.65
2023-05-13T22:13:08.726Z,1.55
2023-05-13T22:15:35.542Z,1.65
2023-05-13T22:18:02.323Z,1.70
2023-05-13T22:20:29.178Z,1.60
2023-05-13T22:22:55.977Z,1.30
2023-05-13T22:25:22.736Z,1.15
2023-05-13T22:27:51.165Z,1.10
2023-05-13T22:30:18.288Z,1.20
2023-05-13T22:32:45.046Z,1.30
2023-05-13T22:35:11.855Z,1.02
2023-05-13T22:40:05.936Z,1.10
2023-05-13T22:42:32.740Z,1.10
2023-05-13T22:44:59.484Z,1.20
2023-05-13T22:49:53.153Z,1.02
2023-05-13T22:52:19.911Z,1.25
2023-05-13T22:54:46.885Z,1.35
2023-05-13T22:57:13.674Z,1.35
2023-05-13T22:59:40.530Z,1.00
2023-05-13T23:02:07.369Z,1.05
2023-05-13T23:04:34.168Z,1.27
2023-05-13T23:07:01.986Z,1.00
2023-05-13T23:09:28.751Z,1.17
2023-05-13T23:11:55.551Z,1.20
2023-05-13T23:14:22.277Z,1.20
2023-05-13T23:19:15.703Z,1.17
2023-05-13T23:21:42.405Z,1.05
2023-05-13T23:26:35.881Z,0.80
2023-05-13T23:31:29.394Z,0.70
2023-05-13T23:33:56.139Z,0.93
2023-05-13T23:38:50.759Z,1.23
2023-05-13T23:41:17.541Z,1.42
2023-05-13T23:43:44.356Z,1.40
2023-05-13T23:46:11.176Z,1.40
2023-05-13T23:48:37.989Z,1.58
2023-05-13T23:51:05.278Z,1.40
2023-05-13T23:53:32.152Z,1.65
2023-05-13T23:55:58.942Z,1.50
2023-05-13T23:58:25.730Z,1.80
